Flight Track Log - Related Links

Times and Time Zones

All times are in EDT time to prevent confusion due to time zone crossing. See the N1944E flight status page for this flight to view local times or setup timezone preferences in your user account.

Time Position Orientation Groundspeed Altitude Reporting Facility
EDT Latitude Longitude Course Direction KTS MPH feet Rate Location/Type
Tue 08:32:00 AM 44.4028 -108.9550 167° South 149 171 8,600  Level Salt Lake Center
Tue 08:33:01 AM 44.3658 -108.9428 167° South 147 169 9,400 1,041 Climbing Salt Lake Center
Tue 08:34:01 AM 44.3233 -108.9256 164° South 144 166 10,700 992 Climbing Salt Lake Center
Tue 08:35:02 AM 44.2861 -108.9200 174° South 142 163 11,400 793 Climbing Salt Lake Center
Tue 08:36:02 AM 44.2467 -108.9131 173° South 145 167 12,300 992 Climbing Salt Lake Center
Tue 08:37:03 AM 44.1992 -108.8969 166° South 151 174 13,400 942 Climbing Salt Lake Center
Tue 08:38:03 AM 44.1600 -108.8892 172° South 151 174 14,200 744 Climbing Salt Lake Center
Tue 08:39:04 AM 44.1200 -108.8803 171° South 151 174 14,900 393 Climbing Salt Lake Center
Tue 08:40:05 AM 44.0675 -108.8650 168° South 160 184 15,000 50 Climbing Salt Lake Center
Tue 08:41:05 AM 44.0156 -108.8550 172° South 179 206 15,000  Level Salt Lake Center
Tue 08:42:06 AM 43.9644 -108.8444 172° South 188 216 15,000  Level Salt Lake Center
Tue 08:43:06 AM 43.9072 -108.8339 172° South 188 216 15,000  Level Salt Lake Center
Tue 08:44:07 AM 43.8578 -108.8228 171° South 188 216 15,000  Level Salt Lake Center
Tue 08:45:07 AM 43.8075 -108.8097 169° South 189 217 15,000  Level Salt Lake Center
Tue 08:46:08 AM 43.7500 -108.7961 170° South 189 217 15,000  Level Salt Lake Center
Tue 08:47:09 AM 43.6981 -108.7817 169° South 193 222 15,000  Level Salt Lake Center
Tue 08:48:09 AM 43.6469 -108.7703 171° South 194 223 15,000 248 Level Salt Lake Center
Tue 08:49:10 AM 43.5956 -108.7578 170° South 195 224 15,500 545 Climbing Salt Lake Center
Tue 08:50:10 AM 43.5408 -108.7406 167° South 187 215 16,100 298 Climbing Salt Lake Center
Tue 08:51:11 AM 43.4900 -108.7236 166° South 190 219 16,100  Level Salt Lake Center
Tue 08:52:12 AM 43.4375 -108.7083 168° South 195 224 16,100  Level Salt Lake Center
Tue 08:53:12 AM 43.3772 -108.6922 169° South 198 228 16,100  Level Salt Lake Center
Tue 08:54:13 AM 43.3250 -108.6817 172° South 198 228 16,100  Level Salt Lake Center
Tue 08:55:13 AM 43.2725 -108.6692 170° South 199 229 16,100  Level Salt Lake Center
Tue 08:56:14 AM 43.2114 -108.6531 169° South 200 230 16,100  Level Salt Lake Center
Tue 08:57:15 AM 43.1597 -108.6381 168° South 199 229 16,100  Level Salt Lake Center
Tue 08:58:15 AM 43.1094 -108.6292 173° South 193 222 16,100  Level Salt Lake Center
Tue 08:59:16 AM 43.0594 -108.6511 198° South 170 196 16,100  Level Salt Lake Center
Tue 09:00:17 AM 43.0161 -108.6694 197° South 168 193 16,100  Level Salt Lake Center
Tue 09:01:17 AM 42.9728 -108.6828 193° South 167 192 16,100  Level Salt Lake Center
Tue 09:02:18 AM 42.9242 -108.6933 189° South 164 189 16,100  Level Salt Lake Center
Tue 09:03:19 AM 42.8808 -108.7092 195° South 168 193 16,100  Level Salt Lake Center
Tue 09:04:20 AM 42.8306 -108.7250 193° South 166 191 16,100  Level Salt Lake Center
Tue 09:05:20 AM 42.7903 -108.7375 193° South 157 181 16,100  Level Salt Lake Center
Tue 09:06:21 AM 42.7497 -108.7486 191° South 156 180 16,100  Level Salt Lake Center
Tue 09:07:22 AM 42.7033 -108.7625 192° South 153 176 16,100  Level Salt Lake Center
Tue 09:08:23 AM 42.6622 -108.7728 190° South 155 178 16,100  Level Salt Lake Center
Tue 09:09:23 AM 42.6186 -108.7875 194° South 166 191 16,100  Level Salt Lake Center
Tue 09:10:24 AM 42.5667 -108.8056 194° South 171 197 16,100  Level Salt Lake Center
Tue 09:11:25 AM 42.5250 -108.8183 193° South 163 188 16,100  Level Salt Lake Center
Tue 09:12:26 AM 42.4864 -108.8239 186° South 149 171 16,100 -148 Level Salt Lake Center
Tue 09:13:27 AM 42.4414 -108.8333 189° South 146 168 15,800 -298 Descending Salt Lake Center
Tue 09:14:27 AM 42.3981 -108.8439 190° South 161 185 15,500 -298 Descending Salt Lake Center
Tue 09:15:28 AM 42.3531 -108.8558 191° South 169 194 15,200 -197 Descending Salt Lake Center
Tue 09:16:29 AM 42.3019 -108.8736 194° South 169 194 15,100 -98 Descending Salt Lake Center
Tue 09:17:30 AM 42.2594 -108.8883 194° South 166 191 15,000 -148 Descending Salt Lake Center
Tue 09:18:31 AM 42.2158 -108.9025 194° South 167 192 14,800 -246 Descending Salt Lake Center
Tue 09:19:32 AM 42.1650 -108.9175 192° South 167 192 14,500 -295 Descending Salt Lake Center
Tue 09:20:33 AM 42.1197 -108.9297 191° South 170 196 14,200 -393 Descending Salt Lake Center
Tue 09:21:34 AM 42.0731 -108.9414 191° South 174 200 13,700 -492 Descending Salt Lake Center
Tue 09:22:35 AM 42.0158 -108.9525 188° South 181 208 13,200 -541 Descending Salt Lake Center
Tue 09:23:36 AM 41.9669 -108.9586 185° South 184 212 12,600 -689 Descending Salt Lake Center
Tue 09:24:37 AM 41.9178 -108.9928 207° Southwest 178 205 11,800 -694 Descending Salt Lake Center
Tue 09:25:37 AM 41.8703 -109.0164 200° South 183 211 11,200 -600 Descending Salt Lake Center

Login

Don't have an account? Register now (free) for customized features, flight alerts, and more!